Skip Navigation LinksHome page > Tools > METAR decoder Skip Navigation Links

METAR decoder



Chicago O'Hare Intl, Chicago

For information only: do not use for flight planning or navigation.
Latest weather
Observation time Friday, October 21, 2016 7:51 PM CDT
Local time Friday, October 21, 2016 8:40 PM CDT
Flight conditions Visual Meteorological Conditions
Wind direction North-Northwest (340°)
Wind speed 9 mph
Visibility 10 mi.
Sky condition
Ceiling unlimited
Cloud layer scattered clouds 4,800 ft.
Temperature 45°F
Dewpoint 29°F
Altimeter 30.14 in.Hg
Derived measurements
Relative humidity 53%
Wind chill 40°F
Density altitude -437 ft.
Sea-level pressure 30.15 in.Hg
Automated weather observing station with precipitation discriminator.
METAR KORD 220051Z 34008KT 10SM SCT048 07/M02 A3014 RMK AO2 SLP210 T00721017

InnerDrive.Weather 4.0.5722.1 Release CLR 4.0.30319.34209
Copyright ©2015 Inner Drive Technology. All rights reserved. Portions Copyright ©1986-2015 David Braverman.

Find weather

Site navigation

Skip Navigation Links

Place info

Page info

PayPal - The safer, easier way to pay online!

Return home.

Copyright ©2016 Inner Drive Technology. Purveyors of fine, hand-crafted computer software. Page printed 2016-10-22T01:40:21 UTC.